createdAt,value
2018-09-09T00:05:04.005Z,7.78
2018-09-09T00:10:59.057Z,12.57
2018-09-09T00:16:54.013Z,10.39
2018-09-09T00:22:49.037Z,9.1
2018-09-09T00:28:44.044Z,8.98
2018-09-09T00:34:39.002Z,12.31
2018-09-09T00:40:34.060Z,12.87
2018-09-09T00:46:29.036Z,13.38
2018-09-09T00:52:24.037Z,11.71
2018-09-09T01:16:04.022Z,13.65
2018-09-09T01:16:04.111Z,9.73
2018-09-09T01:16:04.119Z,9.73
2018-09-09T01:16:04.133Z,9.73
2018-09-09T01:21:59.030Z,9.48
2018-09-09T01:27:54.019Z,7.37
2018-09-09T01:33:49.033Z,10.22
2018-09-09T01:39:44.038Z,7.41
2018-09-09T01:45:39.066Z,10.28
2018-09-09T01:51:34.053Z,7.81
2018-09-09T01:57:29.025Z,8.62
2018-09-09T02:03:24.106Z,8.35
2018-09-09T02:09:19.029Z,9.43
2018-09-09T02:15:14.066Z,10.95
2018-09-09T02:21:09.045Z,9.02
2018-09-09T02:27:04.054Z,9.18
2018-09-09T02:32:59.044Z,11.24
2018-09-09T02:38:54.043Z,9.63
2018-09-09T02:44:49.036Z,10.49
2018-09-09T02:50:44.069Z,9.02
2018-09-09T02:56:39.031Z,12.05
2018-09-09T03:02:34.079Z,9.13
2018-09-09T03:08:29.080Z,7.62
2018-09-09T03:14:24.031Z,8.29
2018-09-09T03:20:19.127Z,10.01
2018-09-09T03:26:14.044Z,10.05
2018-09-09T03:32:09.033Z,9.1
2018-09-09T03:38:04.113Z,7.67
2018-09-09T03:43:59.049Z,7.6
2018-09-09T03:49:54.045Z,7.66
2018-09-09T04:19:29.078Z,7.96
2018-09-09T04:19:29.156Z,7.98
2018-09-09T04:19:29.158Z,7.98
2018-09-09T04:19:29.229Z,7.98
2018-09-09T04:25:24.054Z,11.82
2018-09-09T04:31:19.044Z,12.07
2018-09-09T04:37:14.045Z,31.53
2018-09-09T04:43:09.049Z,15.69
2018-09-09T04:49:04.096Z,14.13
2018-09-09T04:54:59.076Z,21.45
2018-09-09T05:00:54.048Z,90.53
2018-09-09T05:06:49.073Z,116.27
2018-09-09T05:12:44.041Z,139.35
2018-09-09T05:18:39.070Z,144.6
2018-09-09T05:24:34.124Z,133.82
2018-09-09T05:30:29.069Z,95.96
2018-09-09T05:36:24.061Z,81.14
2018-09-09T05:42:19.147Z,51.59
2018-09-09T05:48:14.084Z,41.07
2018-09-09T05:54:09.050Z,27.69
2018-09-09T06:00:04.208Z,29.98
2018-09-09T06:05:59.077Z,24.19
2018-09-09T06:11:54.067Z,23.23
2018-09-09T06:17:49.063Z,24.63
2018-09-09T06:23:44.079Z,16.23
2018-09-09T06:29:39.101Z,14.66
2018-09-09T06:35:34.056Z,12.52
2018-09-09T06:41:29.055Z,14.46
2018-09-09T06:47:24.057Z,14.8
2018-09-09T06:53:19.084Z,14.55
2018-09-09T07:16:59.190Z,15.83
2018-09-09T07:16:59.190Z,15.83
2018-09-09T07:16:59.190Z,15.83
2018-09-09T07:16:59.191Z,15.83
2018-09-09T07:22:54.088Z,15.04
2018-09-09T07:28:49.049Z,11.83
2018-09-09T07:34:44.103Z,11.89
2018-09-09T07:40:39.090Z,11.62
2018-09-09T07:46:34.073Z,16.48
2018-09-09T07:52:29.135Z,20.64
2018-09-09T07:58:24.072Z,12.27
2018-09-09T08:04:19.079Z,10.78
2018-09-09T08:10:14.082Z,15.79
2018-09-09T08:16:09.113Z,9.47
2018-09-09T08:22:04.063Z,9.86
2018-09-09T08:27:59.160Z,11.09
2018-09-09T08:33:54.084Z,10.95
2018-09-09T08:39:49.097Z,12.1
2018-09-09T08:45:44.188Z,13.1
2018-09-09T08:51:39.133Z,10.26
2018-09-09T08:57:34.132Z,10.51
2018-09-09T09:03:29.124Z,9.82
2018-09-09T09:09:24.129Z,9.38
2018-09-09T09:15:19.102Z,8.51
2018-09-09T09:21:14.105Z,11.94
2018-09-09T09:27:09.154Z,8.27
2018-09-09T09:33:04.132Z,8.13
2018-09-09T09:38:59.159Z,9.96
2018-09-09T09:44:54.183Z,6.53
2018-09-09T09:50:49.109Z,7.7
2018-09-09T09:56:44.100Z,8.02
2018-09-09T10:20:24.145Z,7.67
2018-09-09T10:20:24.204Z,5.88
2018-09-09T10:20:24.214Z,5.88
2018-09-09T10:20:24.229Z,5.88
2018-09-09T10:26:19.123Z,7.63
2018-09-09T10:32:14.129Z,9.38
2018-09-09T10:38:09.163Z,9.45
2018-09-09T10:44:04.193Z,6.94
2018-09-09T10:49:59.145Z,7.78
2018-09-09T10:55:54.145Z,6.5
2018-09-09T11:01:49.171Z,5.42
2018-09-09T11:07:44.156Z,5.5
2018-09-09T11:13:39.172Z,5.39
2018-09-09T11:19:34.146Z,9.45
2018-09-09T11:25:29.176Z,5.22
2018-09-09T11:31:24.206Z,8.21
2018-09-09T11:37:19.183Z,4.68
2018-09-09T11:43:14.157Z,6.16
2018-09-09T11:49:09.204Z,6.42
2018-09-09T11:55:04.187Z,5.02
2018-09-09T12:00:59.166Z,4.55
2018-09-09T12:06:54.204Z,7.71
2018-09-09T12:12:49.212Z,4.85
2018-09-09T12:18:44.193Z,4.77
2018-09-09T12:24:39.212Z,5.64
2018-09-09T12:30:34.172Z,5.47
2018-09-09T12:36:29.194Z,4.04
2018-09-09T12:42:24.220Z,5.33
2018-09-09T12:48:19.215Z,5.25
2018-09-09T12:54:14.184Z,5.63
2018-09-09T13:17:54.242Z,6.11
2018-09-09T13:17:54.341Z,5.59
2018-09-09T13:17:54.382Z,5.59
2018-09-09T13:17:54.414Z,5.59
2018-09-09T13:23:49.220Z,5.17
2018-09-09T13:29:44.224Z,6.61
2018-09-09T13:35:39.214Z,6.44
2018-09-09T13:41:34.211Z,5.3
2018-09-09T13:47:29.264Z,4.78
2018-09-09T13:53:24.216Z,3.53
2018-09-09T13:59:19.232Z,4.45
2018-09-09T14:05:14.232Z,6.03
2018-09-09T14:11:09.248Z,4.26
2018-09-09T14:17:04.233Z,4.26
2018-09-09T14:22:59.261Z,3.64
2018-09-09T14:28:54.250Z,4.3
2018-09-09T14:34:49.238Z,4.99
2018-09-09T14:40:44.250Z,4.45
2018-09-09T14:46:39.277Z,4.05
2018-09-09T14:52:34.265Z,3.5
2018-09-09T14:58:29.312Z,5.48
2018-09-09T15:04:24.278Z,3.54
2018-09-09T15:10:19.256Z,3.46
2018-09-09T15:16:14.292Z,4.58
2018-09-09T15:22:09.305Z,4.66
2018-09-09T15:28:04.248Z,5.27
2018-09-09T15:33:59.258Z,5.22
2018-09-09T15:39:54.340Z,4.86
2018-09-09T15:45:49.292Z,5.47
2018-09-09T15:51:44.311Z,6
2018-09-09T15:57:39.315Z,5.26
2018-09-09T16:21:19.304Z,5.4
2018-09-09T16:21:19.454Z,3.54
2018-09-09T16:21:19.462Z,3.54
2018-09-09T16:21:19.464Z,3.54
2018-09-09T16:27:14.286Z,4.33
2018-09-09T16:33:09.475Z,7.12
2018-09-09T16:39:04.276Z,6.3
2018-09-09T16:44:59.298Z,6.56
2018-09-09T16:50:54.341Z,4.69
2018-09-09T16:56:49.309Z,5.29
2018-09-09T17:02:44.287Z,5.74
2018-09-09T17:08:39.323Z,7.8
2018-09-09T17:14:34.353Z,8.3
2018-09-09T17:20:29.319Z,8.06
2018-09-09T17:26:24.308Z,5.14
2018-09-09T17:32:19.338Z,6.98
2018-09-09T17:38:14.341Z,6.09
2018-09-09T17:44:09.327Z,5.46
2018-09-09T17:50:04.333Z,6.13
2018-09-09T17:55:59.318Z,5.74
2018-09-09T18:01:54.319Z,9.93
2018-09-09T18:07:49.376Z,8.33
2018-09-09T18:13:44.344Z,4.74
2018-09-09T18:19:39.321Z,7.28
2018-09-09T18:25:34.351Z,6.97
2018-09-09T18:31:29.341Z,9.24
2018-09-09T18:37:24.339Z,7.83
2018-09-09T18:43:19.332Z,8.13
2018-09-09T18:49:14.436Z,6.36
2018-09-09T18:55:09.375Z,6.33
2018-09-09T19:18:49.370Z,5.3
2018-09-09T19:18:49.571Z,4.8
2018-09-09T19:18:49.585Z,4.8
2018-09-09T19:18:49.602Z,4.8
2018-09-09T19:24:44.382Z,5.55
2018-09-09T19:30:39.374Z,4.65
2018-09-09T19:36:34.438Z,5.6
2018-09-09T19:42:29.391Z,5.26
2018-09-09T19:48:24.363Z,6.59
2018-09-09T19:54:19.369Z,6.85
2018-09-09T20:00:14.368Z,9.81
2018-09-09T20:06:09.387Z,8.06
2018-09-09T20:12:04.408Z,7.91
2018-09-09T20:17:59.381Z,8.03
2018-09-09T20:23:54.422Z,7.51
2018-09-09T20:29:49.377Z,7.04
2018-09-09T20:35:44.381Z,6.72
2018-09-09T20:41:39.411Z,7.6
2018-09-09T20:47:34.380Z,5.58
2018-09-09T20:53:29.376Z,6.9
2018-09-09T20:59:24.390Z,6.13
2018-09-09T21:05:19.457Z,6.81
2018-09-09T21:11:14.382Z,6.84
2018-09-09T21:17:09.387Z,5.57
2018-09-09T21:23:04.400Z,7.78
2018-09-09T21:28:59.426Z,5.69
2018-09-09T21:34:54.389Z,7.58
2018-09-09T21:40:49.416Z,8.01
2018-09-09T21:46:44.413Z,7.33
2018-09-09T21:52:39.478Z,6.54
2018-09-09T21:58:34.430Z,4.93
2018-09-09T22:22:14.427Z,5.82
2018-09-09T22:22:14.657Z,7.14
2018-09-09T22:22:14.657Z,7.14
2018-09-09T22:22:14.722Z,7.14
2018-09-09T22:28:09.493Z,5.88
2018-09-09T22:34:04.423Z,7.35
2018-09-09T22:39:59.450Z,6.48
2018-09-09T22:45:54.427Z,11.14
2018-09-09T22:51:49.436Z,5.27
2018-09-09T22:57:44.462Z,8.3
2018-09-09T23:03:39.456Z,6.12
2018-09-09T23:09:34.487Z,6.52
2018-09-09T23:15:29.452Z,6.58
2018-09-09T23:21:24.501Z,9.93
2018-09-09T23:27:19.441Z,7.59
2018-09-09T23:33:14.448Z,8.77
2018-09-09T23:39:09.446Z,5.66
2018-09-09T23:45:04.440Z,7.33
2018-09-09T23:50:59.541Z,8.7
2018-09-09T23:56:54.463Z,6.24
